Time;durP1;ratioP1;P1;durP2;ratioP2;P2;SDS_P1;SDS_P2;PMS_P1;PMS_P2;Temp;Humidity;BMP_temperature;BMP_pressure;BME280_temperature;BME280_humidity;BME280_pressure;Samples;Min_cycle;Max_cycle;Signal;HPM_P1;HPM_P2
2022/01/29 00:01:06;;;;;;;34.70;19.20;;;6.40;99.90;;;;;;5112246;28;20043;-58
2022/01/29 00:03:35;;;;;;;42.97;21.33;;;7.40;99.90;;;;;;5112310;28;20046;-57
2022/01/29 00:06:02;;;;;;;42.90;23.80;;;7.60;99.90;;;;;;5112438;28;20096;-58
2022/01/29 00:08:27;;;;;;;42.63;20.80;;;6.40;99.90;;;;;;5093948;28;20063;-58
2022/01/29 00:10:59;;;;;;;36.40;19.10;;;6.50;99.90;;;;;;5112310;28;20431;-57
2022/01/29 00:13:25;;;;;;;42.80;22.40;;;6.90;99.90;;;;;;5112227;28;20079;-58
2022/01/29 00:15:50;;;;;;;40.95;20.88;;;7.30;99.90;;;;;;5112339;28;20094;-57
2022/01/29 00:18:16;;;;;;;43.05;21.15;;;7.00;99.90;;;;;;5111901;28;20039;-57
2022/01/29 00:20:42;;;;;;;36.45;20.42;;;6.50;99.90;;;;;;5112416;28;20096;-58
2022/01/29 00:23:07;;;;;;;36.88;19.95;;;7.10;99.90;;;;;;5111724;28;20130;-58
2022/01/29 00:25:33;;;;;;;46.10;22.02;;;6.50;99.90;;;;;;5112638;28;20397;-57
2022/01/29 00:27:59;;;;;;;40.15;20.75;;;6.50;99.90;;;;;;5112002;28;20120;-58
2022/01/29 00:30:31;;;;;;;41.75;22.40;;;7.00;99.90;;;;;;5111926;28;20105;-57
2022/01/29 00:32:57;;;;;;;44.70;23.83;;;6.50;99.90;;;;;;5093600;28;20501;-57
2022/01/29 00:35:23;;;;;;;40.83;21.08;;;6.50;99.90;;;;;;5111433;28;20043;-58
2022/01/29 00:37:48;;;;;;;46.00;23.33;;;6.90;99.90;;;;;;5093583;28;20039;-58
2022/01/29 00:40:14;;;;;;;45.67;23.80;;;6.50;99.90;;;;;;5111886;28;20150;-58
2022/01/29 00:42:41;;;;;;;50.28;26.02;;;6.50;99.90;;;;;;5111957;28;20397;-57
2022/01/29 00:45:07;;;;;;;45.25;25.83;;;6.50;99.90;;;;;;5111814;28;20031;-57
2022/01/29 00:47:33;;;;;;;48.75;25.42;;;6.50;99.90;;;;;;5093693;28;20070;-57
2022/01/29 00:49:59;;;;;;;41.72;26.42;;;6.40;99.90;;;;;;5093329;28;20584;-58
2022/01/29 00:52:24;;;;;;;53.97;26.98;;;6.40;99.90;;;;;;5111622;28;20130;-57
2022/01/29 00:54:50;;;;;;;51.22;26.58;;;6.50;99.90;;;;;;5111888;28;20531;-58
2022/01/29 00:57:16;;;;;;;62.38;28.83;;;7.10;99.90;;;;;;5111766;28;20032;-57
2022/01/29 00:59:42;;;;;;;52.58;29.15;;;7.50;99.90;;;;;;5112033;28;20043;-57
2022/01/29 01:02:09;;;;;;;53.55;28.85;;;6.40;99.90;;;;;;5112161;28;20039;-58
2022/01/29 01:04:38;;;;;;;50.67;28.05;;;6.30;99.90;;;;;;5112245;28;20048;-58
2022/01/29 01:07:08;;;;;;;56.00;28.48;;;6.30;99.90;;;;;;5112080;28;20043;-57
2022/01/29 01:09:34;;;;;;;47.05;27.70;;;6.30;99.90;;;;;;5111287;28;20564;-58
2022/01/29 01:12:00;;;;;;;42.08;24.42;;;6.90;99.90;;;;;;5111530;28;20558;-57
2022/01/29 01:14:26;;;;;;;47.67;27.23;;;6.30;99.90;;;;;;5111519;28;20035;-57
2022/01/29 01:16:51;;;;;;;59.03;33.13;;;6.20;99.90;;;;;;5111706;28;20039;-57
2022/01/29 01:19:17;;;;;;;54.00;28.77;;;6.20;99.90;;;;;;5092844;28;20125;-58
2022/01/29 01:21:43;;;;;;;58.17;29.13;;;6.20;99.90;;;;;;5111310;28;20088;-57
2022/01/29 01:24:08;;;;;;;58.92;31.50;;;6.70;99.90;;;;;;5092858;28;20042;-58
2022/01/29 01:26:34;;;;;;;53.63;30.27;;;6.20;99.90;;;;;;5110987;28;20042;-58
2022/01/29 01:29:02;;;;;;;47.65;25.95;;;6.20;99.90;;;;;;5111164;28;20093;-58
2022/01/29 01:31:28;;;;;;;54.13;27.88;;;6.20;99.90;;;;;;5111068;28;20435;-57
2022/01/29 01:33:54;;;;;;;47.53;25.65;;;6.20;99.90;;;;;;5110052;28;20036;-58
2022/01/29 01:36:23;;;;;;;45.63;25.98;;;6.60;99.90;;;;;;5110685;28;20046;-58
2022/01/29 01:38:54;;;;;;;49.47;28.05;;;6.30;99.90;;;;;;5092718;28;20100;-58
2022/01/29 01:41:24;;;;;;;57.30;28.33;;;6.30;99.90;;;;;;5110912;28;20075;-58
2022/01/29 01:43:50;;;;;;;46.78;25.83;;;7.40;99.90;;;;;;5111462;28;20042;-57
2022/01/29 01:46:16;;;;;;;49.40;24.83;;;6.20;99.90;;;;;;5110976;28;20035;-58
2022/01/29 01:48:42;;;;;;;54.33;30.50;;;6.30;99.90;;;;;;5110999;28;20374;-58
2022/01/29 01:51:08;;;;;;;48.38;28.13;;;6.20;99.90;;;;;;5110899;28;20032;-58
2022/01/29 01:53:34;;;;;;;53.17;28.13;;;6.40;99.90;;;;;;5110674;28;20082;-58
2022/01/29 01:56:00;;;;;;;46.20;23.90;;;6.40;99.90;;;;;;5110620;28;20489;-58
2022/01/29 01:58:25;;;;;;;57.90;28.98;;;6.40;99.90;;;;;;5110266;28;20043;-58
2022/01/29 02:00:51;;;;;;;50.70;26.17;;;7.30;99.90;;;;;;5110820;28;20090;-58
2022/01/29 02:03:17;;;;;;;59.55;29.77;;;6.40;99.90;;;;;;5110376;28;20040;-58
2022/01/29 02:05:45;;;;;;;44.10;22.38;;;6.40;99.90;;;;;;5110343;28;20510;-57
2022/01/29 02:08:14;;;;;;;54.63;29.15;;;6.40;99.90;;;;;;5110778;28;20046;-57
2022/01/29 02:10:39;;;;;;;59.60;30.30;;;6.50;99.90;;;;;;5110709;28;20050;-58
2022/01/29 02:13:05;;;;;;;61.03;28.85;;;6.50;99.90;;;;;;5092281;28;20039;-58
2022/01/29 02:15:31;;;;;;;57.17;27.90;;;6.50;99.90;;;;;;5110726;28;20052;-57
2022/01/29 02:17:58;;;;;;;53.03;29.52;;;7.30;99.90;;;;;;5111145;28;20032;-58
2022/01/29 02:20:26;;;;;;;50.17;27.88;;;6.40;99.90;;;;;;5110714;28;20039;-57
2022/01/29 02:22:52;;;;;;;51.17;24.40;;;6.50;99.90;;;;;;5110857;28;20044;-58
2022/01/29 02:25:48;;;;;;;50.13;25.58;;;6.50;99.90;;;;;;5110403;28;20047;-58
2022/01/29 02:28:17;;;;;;;39.72;21.40;;;6.60;99.90;;;;;;5093289;28;20067;-58
2022/01/29 02:30:46;;;;;;;49.38;25.98;;;6.60;99.90;;;;;;5110209;28;20058;-57
2022/01/29 02:33:14;;;;;;;61.75;30.33;;;6.60;99.90;;;;;;5110319;28;20052;-57
2022/01/29 02:35:42;;;;;;;77.63;32.85;;;6.60;99.90;;;;;;5110038;28;20382;-58
2022/01/29 02:38:09;;;;;;;64.72;32.15;;;6.50;99.90;;;;;;5109928;28;20035;-57
2022/01/29 02:40:42;;;;;;;46.90;25.08;;;6.50;99.90;;;;;;5110032;28;20036;-58
2022/01/29 02:43:31;;;;;;;68.72;29.20;;;6.60;99.90;;;;;;5109950;28;20485;-57
2022/01/29 02:46:04;;;;;;;58.35;28.50;;;7.40;99.90;;;;;;5112984;28;20042;-58
2022/01/29 02:48:29;;;;;;;71.65;33.05;;;6.80;99.90;;;;;;5114035;28;20446;-58
2022/01/29 02:50:55;;;;;;;61.33;30.48;;;6.30;99.90;;;;;;5114151;28;20114;-58
2022/01/29 02:53:21;;;;;;;70.50;30.58;;;6.60;99.90;;;;;;5095508;28;20047;-58
2022/01/29 02:55:47;;;;;;;61.17;29.23;;;6.60;99.90;;;;;;5113841;28;20424;-57
2022/01/29 02:58:13;;;;;;;78.32;34.35;;;6.60;99.90;;;;;;5114016;28;20093;-58
2022/01/29 03:00:39;;;;;;;61.50;28.65;;;7.70;99.90;;;;;;5095339;28;20047;-58
2022/01/29 03:03:05;;;;;;;62.70;30.92;;;6.70;99.90;;;;;;5113736;28;20090;-58
2022/01/29 03:05:31;;;;;;;68.45;29.92;;;6.70;99.90;;;;;;5113330;28;20047;-58
2022/01/29 03:07:57;;;;;;;79.20;30.27;;;6.70;99.90;;;;;;5113794;28;20477;-57
2022/01/29 03:10:23;;;;;;;58.05;29.50;;;6.70;99.90;;;;;;5113630;28;20123;-58
2022/01/29 03:12:49;;;;;;;57.28;27.98;;;7.10;99.90;;;;;;5113432;28;20088;-57
2022/01/29 03:15:14;;;;;;;67.82;27.83;;;6.80;99.90;;;;;;5113660;28;20420;-57
2022/01/29 03:17:41;;;;;;;60.63;28.33;;;6.80;99.90;;;;;;5095089;28;20059;-58
2022/01/29 03:20:08;;;;;;;55.88;28.77;;;7.70;99.90;;;;;;5113561;28;20043;-58
2022/01/29 03:22:34;;;;;;;52.65;24.25;;;6.90;99.90;;;;;;5113704;28;20366;-58
2022/01/29 03:24:59;;;;;;;58.03;27.67;;;6.90;99.90;;;;;;5113429;28;20101;-58
2022/01/29 03:27:25;;;;;;;48.58;21.25;;;7.90;99.90;;;;;;5095267;28;20177;-58
2022/01/29 03:29:51;;;;;;;49.55;23.25;;;7.90;99.90;;;;;;5094735;28;20146;-58
2022/01/29 03:32:16;;;;;;;44.88;22.77;;;7.90;99.90;;;;;;5113403;28;20051;-57
2022/01/29 03:34:42;;;;;;;46.75;20.13;;;7.00;99.90;;;;;;5112835;28;20039;-57
2022/01/29 03:37:08;;;;;;;48.63;19.10;;;7.00;99.90;;;;;;5113219;28;20135;-58
2022/01/29 03:39:35;;;;;;;49.22;23.90;;;7.20;99.90;;;;;;5112269;28;20044;-57
2022/01/29 03:42:05;;;;;;;49.33;22.73;;;7.10;99.90;;;;;;5113172;28;20144;-57
2022/01/29 03:44:32;;;;;;;45.28;18.67;;;7.10;99.90;;;;;;5112851;28;20052;-58
2022/01/29 03:46:57;;;;;;;44.03;23.05;;;7.20;99.90;;;;;;5112878;28;20053;-57
2022/01/29 03:49:23;;;;;;;56.13;25.00;;;7.00;99.90;;;;;;5113140;28;20553;-58
2022/01/29 03:51:49;;;;;;;47.50;23.83;;;7.20;99.90;;;;;;5112930;28;20447;-57
2022/01/29 03:54:15;;;;;;;49.75;24.52;;;7.20;99.90;;;;;;5113050;28;20115;-57
2022/01/29 03:56:40;;;;;;;44.85;20.92;;;7.20;99.90;;;;;;5111658;28;20063;-57
2022/01/29 03:59:06;;;;;;;51.97;22.58;;;7.20;99.90;;;;;;5112707;28;20110;-58
2022/01/29 04:01:32;;;;;;;57.85;25.08;;;7.30;99.90;;;;;;5112712;28;20046;-58
2022/01/29 04:03:58;;;;;;;48.38;22.73;;;8.10;99.90;;;;;;5112466;28;20469;-57
2022/01/29 04:06:24;;;;;;;48.63;23.73;;;7.30;99.90;;;;;;5112404;28;20371;-57
2022/01/29 04:08:50;;;;;;;46.35;25.27;;;8.30;99.90;;;;;;5112403;28;20032;-58
2022/01/29 04:11:16;;;;;;;45.83;21.55;;;7.30;99.90;;;;;;5112575;28;20092;-58
2022/01/29 04:13:45;;;;;;;46.25;22.17;;;7.40;99.90;;;;;;5112342;28;20071;-57
2022/01/29 04:16:12;;;;;;;39.25;22.55;;;6.90;99.90;;;;;;5112494;28;20803;-58
2022/01/29 04:18:38;;;;;;;41.50;21.92;;;7.40;99.90;;;;;;5112311;28;20537;-58
2022/01/29 04:21:05;;;;;;;39.90;23.40;;;7.40;99.90;;;;;;5112204;28;20100;-57
2022/01/29 04:23:31;;;;;;;47.22;21.48;;;8.00;99.90;;;;;;5112149;28;20075;-57
2022/01/29 04:25:57;;;;;;;41.33;19.95;;;7.40;99.90;;;;;;5112188;28;20047;-58
2022/01/29 04:28:28;;;;;;;42.55;22.27;;;8.00;99.90;;;;;;5112183;28;20058;-58
2022/01/29 04:30:59;;;;;;;46.97;20.80;;;8.10;99.90;;;;;;5112233;28;20051;-58
2022/01/29 04:33:30;;;;;;;50.22;23.50;;;7.50;99.90;;;;;;5093684;28;20056;-57
2022/01/29 04:36:01;;;;;;;46.67;22.53;;;8.30;99.90;;;;;;5112162;28;20035;-58
2022/01/29 04:38:28;;;;;;;45.75;21.80;;;7.50;99.90;;;;;;5076321;28;20046;-57
2022/01/29 04:40:55;;;;;;;33.72;16.88;;;7.80;99.90;;;;;;5112104;28;20151;-58
2022/01/29 04:43:21;;;;;;;43.92;22.00;;;7.50;99.90;;;;;;5111936;28;20057;-57
2022/01/29 04:45:47;;;;;;;45.30;20.92;;;7.60;99.90;;;;;;5111681;28;20040;-58
2022/01/29 04:48:13;;;;;;;48.78;22.33;;;7.50;99.90;;;;;;5093605;28;20047;-58
2022/01/29 04:50:39;;;;;;;37.42;19.50;;;7.40;99.90;;;;;;5093078;28;20051;-58
2022/01/29 04:53:05;;;;;;;37.83;23.27;;;7.50;99.90;;;;;;5111313;28;20047;-57
2022/01/29 04:55:32;;;;;;;43.50;22.27;;;8.20;99.90;;;;;;5111235;28;20051;-58
2022/01/29 04:57:57;;;;;;;40.47;21.75;;;7.60;99.90;;;;;;5111371;28;20034;-57
2022/01/29 05:00:23;;;;;;;37.40;20.77;;;7.60;99.90;;;;;;5111535;28;20435;-58
2022/01/29 05:02:54;;;;;;;42.30;23.25;;;8.50;99.90;;;;;;5111291;28;20043;-58
2022/01/29 05:05:21;;;;;;;44.22;20.80;;;7.60;99.90;;;;;;5111542;28;20435;-57
2022/01/29 05:07:47;;;;;;;44.40;21.77;;;7.60;99.90;;;;;;5093203;28;20046;-58
2022/01/29 05:10:13;;;;;;;49.00;21.55;;;7.60;99.90;;;;;;5111194;28;20039;-57
2022/01/29 05:12:47;;;;;;;41.65;22.00;;;7.60;99.90;;;;;;5111490;28;20055;-60
2022/01/29 05:28:45;;;;;;;36.55;20.08;;;8.20;99.90;;;;;;5111018;28;20105;-57
2022/01/29 05:31:10;;;;;;;34.25;17.17;;;7.70;99.90;;;;;;5111114;28;20048;-57
2022/01/29 05:33:36;;;;;;;25.50;14.38;;;7.70;99.90;;;;;;5110843;28;20051;-57
2022/01/29 05:36:02;;;;;;;36.75;19.25;;;7.70;99.90;;;;;;5111025;28;20039;-57
2022/01/29 05:38:28;;;;;;;34.72;19.52;;;7.70;99.90;;;;;;5110577;28;20519;-57
2022/01/29 05:40:55;;;;;;;39.08;20.42;;;7.70;99.90;;;;;;5110814;28;20096;-57
2022/01/29 05:43:21;;;;;;;38.22;17.55;;;7.70;99.90;;;;;;5111064;28;20043;-57
2022/01/29 05:45:47;;;;;;;41.58;20.48;;;7.70;99.90;;;;;;5111138;28;20128;-57
2022/01/29 05:48:12;;;;;;;35.92;18.45;;;7.80;99.90;;;;;;5110620;28;20657;-57
2022/01/29 05:50:38;;;;;;;38.00;19.02;;;7.80;99.90;;;;;;5110749;28;20080;-57
2022/01/29 05:53:04;;;;;;;34.40;19.27;;;7.70;99.90;;;;;;5092061;28;20122;-57
2022/01/29 05:55:30;;;;;;;43.13;18.90;;;7.80;99.90;;;;;;5110838;28;20466;-57
2022/01/29 05:57:56;;;;;;;43.35;20.13;;;8.90;99.90;;;;;;5110385;28;20039;-57
2022/01/29 06:00:21;;;;;;;31.50;16.17;;;7.60;99.90;;;;;;5111368;28;20042;-57
2022/01/29 06:02:56;;;;;;;34.92;19.05;;;7.80;99.90;;;;;;5092620;28;20153;-57
2022/01/29 06:05:22;;;;;;;34.78;18.25;;;8.80;99.90;;;;;;5110735;28;20047;-57
2022/01/29 06:07:48;;;;;;;38.10;19.02;;;7.80;99.90;;;;;;5092468;28;20046;-57
2022/01/29 06:10:14;;;;;;;40.67;19.40;;;7.80;99.90;;;;;;5110238;28;20031;-57
2022/01/29 06:12:41;;;;;;;32.50;18.13;;;8.60;99.90;;;;;;5110715;28;20070;-57
2022/01/29 06:15:08;;;;;;;31.77;18.75;;;7.90;99.90;;;;;;5110589;28;20063;-57
2022/01/29 06:17:33;;;;;;;33.53;17.10;;;7.90;99.90;;;;;;5110233;28;20040;-57
2022/01/29 06:19:59;;;;;;;29.50;15.07;;;8.20;99.90;;;;;;5113432;27;20095;-57
2022/01/29 06:22:26;;;;;;;29.45;17.20;;;8.50;99.90;;;;;;5117174;28;20477;-57
2022/01/29 06:24:51;;;;;;;31.42;14.48;;;8.00;99.90;;;;;;5117110;28;20040;-57
2022/01/29 06:27:17;;;;;;;27.10;16.00;;;8.40;99.90;;;;;;5116878;28;20468;-57
2022/01/29 06:29:43;;;;;;;32.33;16.60;;;8.10;99.90;;;;;;5116850;28;20413;-57
2022/01/29 06:32:09;;;;;;;26.60;17.40;;;8.00;99.90;;;;;;5116794;28;20044;-57
2022/01/29 06:34:34;;;;;;;30.15;16.95;;;8.00;99.90;;;;;;5116861;28;20178;-57
2022/01/29 06:37:03;;;;;;;32.35;16.02;;;8.00;99.90;;;;;;5116927;28;20039;-57
2022/01/29 06:39:28;;;;;;;32.17;16.10;;;8.40;99.90;;;;;;5116449;28;20397;-57
2022/01/29 06:41:54;;;;;;;29.50;16.92;;;8.00;99.90;;;;;;5116915;28;20041;-57
2022/01/29 06:44:20;;;;;;;28.05;15.70;;;8.00;99.90;;;;;;5116512;28;20128;-57
2022/01/29 06:46:45;;;;;;;24.05;12.43;;;8.10;99.90;;;;;;5116668;28;20044;-57
2022/01/29 06:49:11;;;;;;;26.55;12.55;;;8.10;99.90;;;;;;5116780;28;20051;-57
2022/01/29 06:51:36;;;;;;;23.02;14.10;;;8.10;99.90;;;;;;5117024;28;20465;-57
2022/01/29 06:54:02;;;;;;;31.08;16.10;;;7.80;99.90;;;;;;5098471;28;20044;-57
2022/01/29 06:56:28;;;;;;;24.25;13.32;;;8.10;99.90;;;;;;5117119;28;20040;-57
2022/01/29 06:58:54;;;;;;;24.20;13.65;;;8.10;99.90;;;;;;5117039;28;20040;-57
2022/01/29 07:01:19;;;;;;;21.27;12.52;;;8.40;99.90;;;;;;5098353;28;20481;-57
2022/01/29 07:03:45;;;;;;;22.20;12.25;;;8.70;99.90;;;;;;5116763;28;20130;-57
2022/01/29 07:06:11;;;;;;;28.30;15.00;;;8.20;99.90;;;;;;5098355;28;20059;-57
2022/01/29 07:08:38;;;;;;;23.60;11.15;;;8.20;99.90;;;;;;5116887;28;20038;-57
2022/01/29 07:11:04;;;;;;;18.45;10.82;;;8.40;99.90;;;;;;5117108;28;20062;-57
2022/01/29 07:13:31;;;;;;;19.92;13.10;;;8.20;99.90;;;;;;5116531;28;20039;-57
2022/01/29 07:15:56;;;;;;;20.83;11.13;;;9.10;99.90;;;;;;5116691;28;20493;-57
2022/01/29 07:18:22;;;;;;;19.85;9.73;;;8.30;99.90;;;;;;5116510;28;20035;-57
2022/01/29 07:20:48;;;;;;;22.25;12.40;;;8.50;99.90;;;;;;5116424;28;20493;-57
2022/01/29 07:23:14;;;;;;;21.70;10.88;;;8.30;99.90;;;;;;5116101;28;20767;-57
2022/01/29 07:25:40;;;;;;;18.80;11.38;;;8.20;99.90;;;;;;5116658;28;20082;-57
2022/01/29 07:28:05;;;;;;;21.13;11.30;;;9.10;99.90;;;;;;5097710;28;20134;-57
2022/01/29 07:30:31;;;;;;;21.63;12.63;;;8.30;99.90;;;;;;5115376;28;20090;-57
2022/01/29 07:32:57;;;;;;;18.15;9.55;;;8.30;99.90;;;;;;5113341;28;20048;-57
2022/01/29 07:35:22;;;;;;;22.90;11.45;;;8.30;99.90;;;;;;5112505;28;20145;-57
2022/01/29 07:37:48;;;;;;;19.15;11.43;;;8.40;99.90;;;;;;5112870;28;20092;-57
2022/01/29 07:40:14;;;;;;;21.38;11.18;;;8.40;99.90;;;;;;5112911;28;20071;-57
2022/01/29 07:42:39;;;;;;;23.08;9.85;;;8.30;99.90;;;;;;5113094;28;20370;-57
2022/01/29 07:45:06;;;;;;;18.75;10.50;;;8.30;99.90;;;;;;5113139;28;20061;-57
2022/01/29 07:47:33;;;;;;;19.85;11.27;;;8.30;99.90;;;;;;5112844;28;20043;-58
2022/01/29 07:49:59;;;;;;;17.95;8.93;;;8.30;99.90;;;;;;5113004;28;20386;-57
2022/01/29 07:52:25;;;;;;;23.15;11.25;;;8.20;99.90;;;;;;5112647;28;20048;-57
2022/01/29 07:54:50;;;;;;;20.23;10.80;;;8.30;99.90;;;;;;5113078;28;20051;-57
2022/01/29 07:57:16;;;;;;;27.80;12.40;;;8.70;99.90;;;;;;5112916;28;20600;-57
2022/01/29 07:59:42;;;;;;;20.92;10.73;;;8.10;99.90;;;;;;5113003;28;20035;-57
2022/01/29 08:02:08;;;;;;;25.25;13.90;;;8.20;99.90;;;;;;5112911;28;20047;-58
2022/01/29 08:04:34;;;;;;;20.35;12.27;;;8.80;99.90;;;;;;5112690;28;20138;-58
2022/01/29 08:07:00;;;;;;;29.92;13.52;;;8.20;99.90;;;;;;5112228;28;20046;-57
2022/01/29 08:09:25;;;;;;;34.65;14.27;;;8.20;99.90;;;;;;5112371;28;20039;-57
2022/01/29 08:11:51;;;;;;;25.73;12.52;;;8.10;99.90;;;;;;5112369;28;20044;-57
2022/01/29 08:14:17;;;;;;;24.13;13.02;;;8.10;99.90;;;;;;5112474;28;20082;-57
2022/01/29 08:16:42;;;;;;;28.02;14.60;;;8.50;99.90;;;;;;5112690;28;20115;-58
2022/01/29 08:19:08;;;;;;;29.63;15.25;;;8.10;99.90;;;;;;5112306;28;20039;-57
2022/01/29 08:21:34;;;;;;;24.13;14.25;;;9.00;99.90;;;;;;5094157;28;20092;-57
2022/01/29 08:23:59;;;;;;;22.92;13.35;;;8.10;99.90;;;;;;5093710;28;20047;-57
2022/01/29 08:26:25;;;;;;;26.88;14.25;;;8.10;99.90;;;;;;5112048;28;20397;-57
2022/01/29 08:28:51;;;;;;;33.53;14.85;;;8.60;99.90;;;;;;5112042;28;20121;-57
2022/01/29 08:31:16;;;;;;;24.50;13.45;;;8.90;99.90;;;;;;5111595;28;20056;-57
2022/01/29 08:33:42;;;;;;;29.13;13.57;;;8.10;99.90;;;;;;5093556;28;20043;-57
2022/01/29 08:36:08;;;;;;;25.50;13.82;;;8.20;99.90;;;;;;5111581;28;20126;-57
2022/01/29 08:38:34;;;;;;;25.10;15.65;;;8.20;99.90;;;;;;5111411;28;20047;-59
2022/01/29 08:41:00;;;;;;;23.35;12.73;;;8.20;99.90;;;;;;5111740;28;20054;-57
2022/01/29 08:43:26;;;;;;;23.92;13.63;;;8.30;99.90;;;;;;5110777;28;20052;-57
2022/01/29 08:45:53;;;;;;;21.75;13.68;;;8.80;99.90;;;;;;5111900;28;20036;-58
2022/01/29 08:48:19;;;;;;;24.38;13.18;;;8.80;99.90;;;;;;5111577;28;20054;-57
2022/01/29 08:50:45;;;;;;;24.33;11.88;;;8.30;99.90;;;;;;5112180;28;20043;-57
2022/01/29 08:53:11;;;;;;;18.10;9.85;;;9.30;99.90;;;;;;5111417;28;20134;-57
2022/01/29 08:55:37;;;;;;;19.42;10.38;;;8.40;99.90;;;;;;5111572;28;20042;-58
2022/01/29 08:58:07;;;;;;;12.55;7.97;;;8.50;99.90;;;;;;5111464;28;20039;-57
2022/01/29 09:00:36;;;;;;;21.10;11.15;;;9.30;99.90;;;;;;5111204;28;20040;-57
2022/01/29 09:03:02;;;;;;;16.48;8.95;;;8.60;99.90;;;;;;5111538;28;20128;-57
2022/01/29 09:05:28;;;;;;;14.57;8.57;;;8.60;99.90;;;;;;5092455;28;20459;-57
2022/01/29 09:07:54;;;;;;;14.38;9.18;;;8.60;99.90;;;;;;5111634;28;20064;-57
2022/01/29 09:10:20;;;;;;;14.80;8.60;;;9.30;99.90;;;;;;5093297;28;20051;-57
2022/01/29 09:12:46;;;;;;;14.43;6.47;;;8.70;99.90;;;;;;5092872;28;20043;-57
2022/01/29 09:15:11;;;;;;;9.73;5.55;;;8.80;99.90;;;;;;5111054;28;20040;-57
2022/01/29 09:17:39;;;;;;;11.30;5.05;;;8.80;99.90;;;;;;5111112;28;20108;-57
2022/01/29 09:20:10;;;;;;;14.13;7.18;;;8.60;99.90;;;;;;5111000;28;20500;-57
2022/01/29 09:22:37;;;;;;;11.10;4.65;;;8.90;99.90;;;;;;5110902;28;20049;-57
2022/01/29 09:25:03;;;;;;;9.20;5.32;;;8.90;99.90;;;;;;5110982;28;20043;-57
2022/01/29 09:27:29;;;;;;;14.60;5.68;;;8.90;99.90;;;;;;5111093;28;20040;-57
2022/01/29 09:29:55;;;;;;;10.82;5.80;;;8.90;99.90;;;;;;5110820;28;20039;-57
2022/01/29 09:32:20;;;;;;;9.90;5.43;;;8.90;99.90;;;;;;5111150;28;20558;-57
2022/01/29 09:34:46;;;;;;;12.77;4.97;;;8.80;99.90;;;;;;5109914;28;20115;-57
2022/01/29 09:37:13;;;;;;;16.90;5.28;;;9.00;99.90;;;;;;5110845;28;20043;-57
2022/01/29 09:39:38;;;;;;;14.73;5.40;;;9.00;99.90;;;;;;5110629;28;20035;-57
2022/01/29 09:42:06;;;;;;;11.40;5.32;;;9.10;99.90;;;;;;5111101;28;20038;-57
2022/01/29 09:44:34;;;;;;;12.55;4.95;;;9.10;99.90;;;;;;5110372;28;20097;-57
2022/01/29 09:47:02;;;;;;;10.23;5.28;;;9.20;99.90;;;;;;5111127;28;20039;-57
2022/01/29 09:49:33;;;;;;;11.48;4.85;;;9.20;99.90;;;;;;5092350;28;20039;-57
2022/01/29 09:52:00;;;;;;;10.70;4.65;;;9.20;99.90;;;;;;5111184;28;20043;-57
2022/01/29 09:54:25;;;;;;;9.70;5.20;;;9.30;99.90;;;;;;5110224;28;20088;-57
2022/01/29 09:56:51;;;;;;;12.00;4.47;;;9.30;99.90;;;;;;5110696;28;20339;-57
2022/01/29 09:59:17;;;;;;;11.98;4.70;;;9.50;99.90;;;;;;5109924;28;20041;-55
2022/01/29 10:01:42;;;;;;;8.65;4.32;;;9.30;99.90;;;;;;5106776;28;20092;-52
2022/01/29 10:04:08;;;;;;;9.90;4.90;;;9.80;99.90;;;;;;5107717;28;20047;-43
2022/01/29 10:06:36;;;;;;;9.40;5.45;;;9.30;99.90;;;;;;5108268;28;20046;-47
2022/01/29 10:09:09;;;;;;;10.48;4.05;;;9.30;99.90;;;;;;5109922;28;20089;-49
2022/01/29 10:11:35;;;;;;;10.48;4.40;;;9.40;99.90;;;;;;5110196;28;20039;-48
2022/01/29 10:14:03;;;;;;;12.07;4.25;;;9.40;99.90;;;;;;5091818;28;20055;-48
2022/01/29 10:16:31;;;;;;;14.02;4.30;;;9.40;99.90;;;;;;5110626;28;20043;-57
2022/01/29 10:19:04;;;;;;;8.52;3.78;;;9.50;99.90;;;;;;5092248;28;20112;-45
2022/01/29 10:21:41;;;;;;;11.18;3.03;;;9.50;99.90;;;;;;5110611;28;20043;-52
2022/01/29 10:24:11;;;;;;;8.95;3.40;;;9.60;99.90;;;;;;5110223;28;20494;-48
2022/01/29 10:26:39;;;;;;;6.75;2.58;;;9.60;99.90;;;;;;5110330;28;20043;-51
2022/01/29 10:29:26;;;;;;;13.32;3.47;;;9.60;99.90;;;;;;5110068;28;20047;-55
2022/01/29 10:31:57;;;;;;;8.55;3.10;;;9.70;99.90;;;;;;5109998;28;20092;-49
2022/01/29 10:34:34;;;;;;;10.82;3.08;;;9.70;99.90;;;;;;5110292;28;20445;-54
2022/01/29 10:37:19;;;;;;;11.60;3.92;;;9.70;99.90;;;;;;5110268;28;20104;-49
2022/01/29 10:39:57;;;;;;;9.15;3.03;;;9.30;99.90;;;;;;5110462;28;20035;-58
2022/01/29 10:42:26;;;;;;;7.72;2.65;;;9.70;99.90;;;;;;5109301;28;20050;-57
2022/01/29 10:44:55;;;;;;;12.75;3.33;;;9.70;99.90;;;;;;5091567;28;20051;-52
2022/01/29 10:47:21;;;;;;;10.63;3.95;;;9.70;99.90;;;;;;5110048;28;20055;-51
2022/01/29 10:50:03;;;;;;;6.65;2.85;;;9.60;99.90;;;;;;5109756;28;20058;-52
2022/01/29 10:52:34;;;;;;;6.78;2.47;;;9.60;99.90;;;;;;5109436;28;20048;-46
2022/01/29 10:55:05;;;;;;;7.57;2.05;;;9.70;99.90;;;;;;5109529;28;20093;-52
2022/01/29 10:57:32;;;;;;;10.87;2.33;;;9.90;99.90;;;;;;5110300;28;20040;-52
2022/01/29 10:59:59;;;;;;;6.28;1.95;;;10.10;99.90;;;;;;5091821;28;20276;-53
2022/01/29 11:02:28;;;;;;;9.55;2.22;;;10.00;99.90;;;;;;5091467;28;20055;-48
2022/01/29 11:04:55;;;;;;;6.68;2.25;;;9.60;99.90;;;;;;5109071;28;20047;-47
2022/01/29 11:07:27;;;;;;;8.57;2.60;;;9.70;99.90;;;;;;5112481;28;20087;-56
2022/01/29 11:09:53;;;;;;;12.02;2.22;;;9.70;99.90;;;;;;5113077;28;20043;-50
2022/01/29 11:12:21;;;;;;;12.65;3.33;;;10.10;99.90;;;;;;5113214;28;20048;-53
2022/01/29 11:14:48;;;;;;;6.93;1.85;;;9.80;99.90;;;;;;5112704;28;20392;-47
2022/01/29 11:17:15;;;;;;;9.77;1.85;;;10.30;99.90;;;;;;5112918;28;20122;-45
2022/01/29 11:19:41;;;;;;;6.82;1.60;;;10.20;99.90;;;;;;5113105;28;20375;-48
2022/01/29 11:22:08;;;;;;;7.25;2.05;;;9.80;99.90;;;;;;5112996;28;20114;-48
2022/01/29 11:24:37;;;;;;;10.18;1.70;;;9.80;99.90;;;;;;5113125;28;20035;-49
2022/01/29 11:27:32;;;;;;;8.55;1.70;;;9.80;99.90;;;;;;5112867;28;20115;-48
2022/01/29 11:30:11;;;;;;;9.10;1.60;;;9.90;99.90;;;;;;5103922;28;20143;-44
2022/01/29 11:32:43;;;;;;;12.52;2.25;;;10.30;99.90;;;;;;5112862;28;20122;-49
2022/01/29 11:35:19;;;;;;;8.15;1.58;;;9.90;99.90;;;;;;5094256;28;20075;-48
2022/01/29 11:37:48;;;;;;;7.78;1.40;;;9.90;99.90;;;;;;5112281;28;20120;-47
2022/01/29 11:40:22;;;;;;;8.45;1.75;;;9.90;99.90;;;;;;5094420;28;20031;-50
2022/01/29 11:42:57;;;;;;;12.27;1.45;;;9.90;99.90;;;;;;5112574;28;20490;-49
2022/01/29 11:45:29;;;;;;;9.82;1.60;;;9.90;99.90;;;;;;5112885;28;20476;-46
2022/01/29 11:47:55;;;;;;;8.95;1.33;;;9.80;99.90;;;;;;5093937;28;20464;-52
2022/01/29 11:50:27;;;;;;;6.28;2.13;;;10.00;99.90;;;;;;5112959;28;20059;-47
2022/01/29 11:52:54;;;;;;;7.38;2.50;;;10.30;99.90;;;;;;5112703;28;20088;-49
2022/01/29 11:55:33;;;;;;;5.38;1.58;;;10.10;99.90;;;;;;5094508;28;20659;-46
2022/01/29 11:58:20;;;;;;;7.47;1.73;;;10.00;99.90;;;;;;5093861;28;20043;-46
2022/01/29 12:00:48;;;;;;;9.55;1.75;;;10.00;99.90;;;;;;5112470;28;20039;-41
2022/01/29 12:06:24;;;;;;;11.52;2.60;;;10.10;99.90;;;;;;5093319;28;20481;-55
2022/01/29 12:09:05;;;;;;;5.38;0.80;;;10.50;99.90;;;;;;5112290;28;20122;-43
2022/01/29 12:11:41;;;;;;;9.35;1.20;;;10.10;99.90;;;;;;5112649;28;20059;-43
2022/01/29 12:14:12;;;;;;;4.78;0.70;;;10.20;99.90;;;;;;5112128;28;20047;-47
2022/01/29 12:16:59;;;;;;;10.97;1.20;;;10.30;99.90;;;;;;5111963;28;20602;-44
2022/01/29 12:19:44;;;;;;;6.40;1.35;;;10.40;99.90;;;;;;5111997;28;20274;-44
2022/01/29 12:22:20;;;;;;;7.13;0.98;;;10.50;99.90;;;;;;5112090;28;20412;-43
2022/01/29 12:24:54;;;;;;;10.85;1.75;;;10.50;99.90;;;;;;5112573;28;20036;-45
2022/01/29 12:27:21;;;;;;;5.68;1.65;;;10.50;99.90;;;;;;5112501;28;20170;-45
2022/01/29 12:29:46;;;;;;;7.30;0.98;;;10.60;99.90;;;;;;5111781;28;20130;-43
2022/01/29 12:32:13;;;;;;;3.40;0.98;;;10.60;99.90;;;;;;5111834;28;20130;-45
2022/01/29 12:34:39;;;;;;;5.07;0.60;;;10.60;99.90;;;;;;5093740;28;20104;-45
2022/01/29 12:37:15;;;;;;;4.70;0.55;;;10.60;99.90;;;;;;5110771;28;20035;-45
2022/01/29 12:39:44;;;;;;;8.27;1.90;;;10.60;99.90;;;;;;5111740;28;20078;-43
2022/01/29 12:42:28;;;;;;;10.70;1.40;;;10.70;99.90;;;;;;5111124;28;20046;-45
2022/01/29 12:44:56;;;;;;;6.10;0.55;;;10.80;99.90;;;;;;5111501;28;20048;-43
2022/01/29 12:47:32;;;;;;;4.38;0.80;;;11.70;99.90;;;;;;5111396;28;20092;-43
2022/01/29 12:49:58;;;;;;;9.52;0.73;;;10.70;99.90;;;;;;5111206;28;20035;-45
2022/01/29 12:52:25;;;;;;;10.50;1.13;;;10.70;99.90;;;;;;5111651;28;20043;-46
2022/01/29 12:54:55;;;;;;;7.28;0.65;;;10.60;99.90;;;;;;5111161;28;20493;-46
2022/01/29 12:57:21;;;;;;;8.30;0.60;;;10.60;99.90;;;;;;5111145;28;20039;-47
2022/01/29 12:59:48;;;;;;;6.63;0.75;;;10.60;99.90;;;;;;5111417;28;20814;-45